Time;durP1;ratioP1;P1;durP2;ratioP2;P2;SDS_P1;SDS_P2;PMS_P1;PMS_P2;Temp;Humidity;BMP_temperature;BMP_pressure;BME280_temperature;BME280_humidity;BME280_pressure;Samples;Min_cycle;Max_cycle;Signal;HPM_P1;HPM_P2
2021/08/03 00:00:48;;;;;;;4.82;2.92;;;;;;;;;;5010805;28;20030;-68
2021/08/03 00:03:13;;;;;;;7.20;2.60;;;;;;;;;;5013936;28;20017;-69
2021/08/03 00:05:39;;;;;;;5.47;2.00;;;;;;;;;;5016150;28;20025;-68
2021/08/03 00:08:25;;;;;;;4.68;2.58;;;;;;;;;;5023813;28;20030;-68
2021/08/03 00:10:50;;;;;;;4.28;2.30;;;;;;;;;;5005277;28;20034;-69
2021/08/03 00:13:16;;;;;;;5.68;2.40;;;;;;;;;;5016034;28;20021;-69
2021/08/03 00:15:41;;;;;;;5.78;2.50;;;;;;;;;;5016827;28;20045;-70
2021/08/03 00:18:06;;;;;;;5.40;2.80;;;;;;;;;;5010119;28;20066;-69
2021/08/03 00:20:34;;;;;;;4.72;2.80;;;;;;;;;;5010124;28;20401;-67
2021/08/03 00:23:00;;;;;;;4.32;2.92;;;;;;;;;;5016781;28;20334;-68
2021/08/03 00:25:26;;;;;;;5.03;2.75;;;;;;;;;;5013938;28;20159;-69
2021/08/03 00:27:52;;;;;;;3.53;2.45;;;;;;;;;;5011388;28;20087;-68
2021/08/03 00:30:17;;;;;;;4.07;2.63;;;;;;;;;;5018524;28;20026;-69
2021/08/03 00:32:43;;;;;;;4.03;2.80;;;;;;;;;;5013680;28;20022;-68
2021/08/03 00:35:08;;;;;;;3.72;2.50;;;;;;;;;;5020213;28;20456;-68
2021/08/03 00:37:34;;;;;;;4.18;2.75;;;;;;;;;;5011599;28;20022;-68
2021/08/03 00:39:59;;;;;;;4.13;2.85;;;;;;;;;;5012036;28;20489;-70
2021/08/03 00:42:24;;;;;;;3.65;2.53;;;;;;;;;;5008822;28;20026;-69
2021/08/03 00:44:50;;;;;;;5.85;3.05;;;;;;;;;;5009639;28;20119;-69
2021/08/03 00:47:16;;;;;;;5.43;3.20;;;;;;;;;;5011853;28;20084;-69
2021/08/03 00:49:42;;;;;;;4.30;2.85;;;;;;;;;;5010690;28;20461;-69
2021/08/03 00:52:11;;;;;;;4.05;2.60;;;;;;;;;;5014751;28;20196;-69
2021/08/03 00:54:37;;;;;;;6.90;3.30;;;;;;;;;;5009593;28;20525;-69
2021/08/03 00:57:03;;;;;;;8.32;2.92;;;;;;;;;;5012109;28;20036;-68
2021/08/03 00:59:29;;;;;;;4.57;2.72;;;;;;;;;;5010297;28;20026;-68
2021/08/03 01:01:55;;;;;;;4.47;2.80;;;;;;;;;;5015158;28;20029;-69
2021/08/03 01:04:20;;;;;;;4.30;2.83;;;;;;;;;;5008146;28;20041;-69
2021/08/03 01:06:48;;;;;;;4.97;2.15;;;;;;;;;;5009327;28;20014;-68
2021/08/03 01:09:17;;;;;;;3.88;2.35;;;;;;;;;;5009445;28;20029;-69
2021/08/03 01:11:50;;;;;;;3.70;2.25;;;;;;;;;;5009122;28;20030;-69
2021/08/03 01:14:15;;;;;;;3.28;2.08;;;;;;;;;;5009048;28;20509;-69
2021/08/03 01:17:00;;;;;;;3.33;2.05;;;;;;;;;;5015556;28;20598;-69
2021/08/03 01:19:46;;;;;;;3.72;2.28;;;;;;;;;;5009126;28;20284;-68
2021/08/03 01:22:20;;;;;;;3.53;2.03;;;;;;;;;;5019154;28;20040;-68
2021/08/03 01:24:58;;;;;;;3.83;1.88;;;;;;;;;;5007867;28;20030;-69
2021/08/03 01:27:56;;;;;;;3.22;2.20;;;;;;;;;;5008927;28;20131;-69
2021/08/03 01:30:21;;;;;;;4.15;1.85;;;;;;;;;;4967597;28;20061;-69
2021/08/03 01:32:48;;;;;;;4.18;1.98;;;;;;;;;;4968155;28;20478;-69
2021/08/03 01:35:14;;;;;;;3.80;1.90;;;;;;;;;;4980204;28;20043;-69
2021/08/03 01:37:39;;;;;;;2.30;1.67;;;;;;;;;;4968117;28;20026;-69
2021/08/03 01:40:07;;;;;;;5.65;2.55;;;;;;;;;;4966754;28;20034;-69
2021/08/03 01:42:36;;;;;;;4.10;2.33;;;;;;;;;;4970604;28;20037;-69
2021/08/03 01:45:01;;;;;;;4.00;2.10;;;;;;;;;;4982680;28;20030;-69
2021/08/03 01:47:27;;;;;;;4.07;2.20;;;;;;;;;;4970738;28;20030;-68
2021/08/03 01:49:52;;;;;;;3.80;2.33;;;;;;;;;;4969292;28;20026;-69
2021/08/03 01:52:18;;;;;;;3.33;1.90;;;;;;;;;;4972600;28;20054;-69
2021/08/03 01:54:47;;;;;;;3.75;2.30;;;;;;;;;;4972563;28;20513;-69
2021/08/03 01:57:13;;;;;;;4.07;2.40;;;;;;;;;;4967097;28;20027;-68
2021/08/03 01:59:38;;;;;;;3.58;2.33;;;;;;;;;;4969077;28;20039;-69
2021/08/03 02:02:03;;;;;;;3.35;2.13;;;;;;;;;;4966552;28;20033;-69
2021/08/03 02:04:30;;;;;;;3.95;2.17;;;;;;;;;;4966040;28;20054;-69
2021/08/03 02:06:55;;;;;;;4.43;2.58;;;;;;;;;;5009463;28;20121;-70
2021/08/03 02:09:21;;;;;;;3.85;2.03;;;;;;;;;;5008955;28;20435;-69
2021/08/03 02:11:47;;;;;;;4.15;2.40;;;;;;;;;;5014448;28;20022;-69
2021/08/03 02:14:12;;;;;;;3.80;2.63;;;;;;;;;;5010347;28;20532;-69
2021/08/03 02:16:38;;;;;;;5.43;3.42;;;;;;;;;;5013128;28;20084;-69
2021/08/03 02:19:04;;;;;;;4.03;2.78;;;;;;;;;;5012696;28;20022;-68
2021/08/03 02:21:29;;;;;;;4.18;2.90;;;;;;;;;;5010947;28;20026;-70
2021/08/03 02:23:54;;;;;;;4.72;3.35;;;;;;;;;;5014994;28;20049;-69
2021/08/03 02:26:19;;;;;;;3.85;2.72;;;;;;;;;;5022428;28;20049;-68
2021/08/03 02:28:45;;;;;;;4.15;2.97;;;;;;;;;;5023517;28;20030;-69
2021/08/03 02:31:15;;;;;;;5.97;3.58;;;;;;;;;;5012158;28;20053;-69
2021/08/03 02:33:41;;;;;;;5.65;3.30;;;;;;;;;;5016801;28;20061;-69
2021/08/03 02:36:08;;;;;;;4.78;2.83;;;;;;;;;;5012857;28;20497;-69
2021/08/03 02:38:36;;;;;;;4.75;2.80;;;;;;;;;;5016023;28;20513;-70
2021/08/03 02:41:02;;;;;;;5.25;2.80;;;;;;;;;;5018311;28;20334;-69
2021/08/03 02:43:27;;;;;;;4.32;2.45;;;;;;;;;;5012709;28;20107;-69
2021/08/03 02:45:54;;;;;;;4.75;2.80;;;;;;;;;;5012234;28;20677;-68
2021/08/03 02:48:21;;;;;;;4.40;2.70;;;;;;;;;;5012548;28;20564;-70
2021/08/03 02:50:47;;;;;;;5.30;2.90;;;;;;;;;;5014994;28;20378;-69
2021/08/03 02:53:27;;;;;;;6.15;2.88;;;;;;;;;;5009584;28;20022;-69
2021/08/03 02:55:55;;;;;;;4.72;2.97;;;;;;;;;;5023652;28;20442;-69
2021/08/03 02:58:35;;;;;;;5.22;3.20;;;;;;;;;;5021719;28;20049;-69
2021/08/03 03:01:01;;;;;;;5.30;3.00;;;;;;;;;;5013624;28;20034;-70
2021/08/03 03:03:27;;;;;;;4.68;3.42;;;;;;;;;;5021010;28;20033;-69
2021/08/03 03:06:06;;;;;;;9.32;3.63;;;;;;;;;;5025319;28;20036;-69
2021/08/03 03:08:32;;;;;;;5.03;3.35;;;;;;;;;;5017091;28;20033;-69
2021/08/03 03:10:59;;;;;;;7.22;3.20;;;;;;;;;;5027716;28;20048;-69
2021/08/03 03:13:29;;;;;;;5.50;3.45;;;;;;;;;;5024685;28;20022;-69
2021/08/03 03:15:55;;;;;;;5.50;3.88;;;;;;;;;;5015387;28;20033;-68
2021/08/03 03:18:20;;;;;;;6.70;3.63;;;;;;;;;;5018751;28;20410;-69
2021/08/03 03:20:46;;;;;;;8.02;3.65;;;;;;;;;;5016526;28;20036;-68
2021/08/03 03:23:12;;;;;;;6.80;3.90;;;;;;;;;;5018420;28;20029;-69
2021/08/03 03:25:37;;;;;;;6.47;3.95;;;;;;;;;;5019787;28;20116;-69
2021/08/03 03:28:04;;;;;;;6.28;3.42;;;;;;;;;;5010529;28;20132;-69
2021/08/03 03:30:31;;;;;;;5.97;4.03;;;;;;;;;;5012016;28;20025;-69
2021/08/03 03:33:02;;;;;;;6.28;3.53;;;;;;;;;;5026897;28;20037;-68
2021/08/03 03:35:27;;;;;;;6.55;3.65;;;;;;;;;;5015366;28;20030;-69
2021/08/03 03:37:53;;;;;;;8.48;3.78;;;;;;;;;;5018436;28;20120;-69
2021/08/03 03:40:19;;;;;;;6.47;3.70;;;;;;;;;;5014369;28;20429;-69
2021/08/03 03:42:46;;;;;;;6.28;3.47;;;;;;;;;;5017087;28;20389;-69
2021/08/03 03:45:12;;;;;;;6.18;3.88;;;;;;;;;;5025871;28;20025;-68
2021/08/03 03:47:40;;;;;;;6.45;4.10;;;;;;;;;;5010664;28;20034;-68
2021/08/03 03:50:11;;;;;;;5.38;3.53;;;;;;;;;;5021005;28;20037;-68
2021/08/03 03:52:47;;;;;;;5.60;3.30;;;;;;;;;;5014207;28;20018;-69
2021/08/03 03:55:14;;;;;;;6.13;3.58;;;;;;;;;;5016158;28;20025;-69
2021/08/03 03:57:41;;;;;;;6.43;3.63;;;;;;;;;;5024072;28;20121;-69
2021/08/03 04:00:07;;;;;;;5.72;3.85;;;;;;;;;;5023761;28;20041;-69
2021/08/03 04:02:33;;;;;;;7.78;3.50;;;;;;;;;;5012993;28;20029;-69
2021/08/03 04:04:59;;;;;;;5.53;3.38;;;;;;;;;;5014303;28;20408;-69
2021/08/03 04:07:25;;;;;;;5.13;3.53;;;;;;;;;;5016649;28;20029;-69
2021/08/03 04:10:00;;;;;;;5.25;3.50;;;;;;;;;;5015440;28;20026;-69
2021/08/03 04:12:25;;;;;;;5.88;3.22;;;;;;;;;;5009847;28;20105;-69
2021/08/03 04:14:50;;;;;;;8.52;3.67;;;;;;;;;;5012760;28;20143;-69
2021/08/03 04:17:15;;;;;;;5.53;3.88;;;;;;;;;;5009996;28;20025;-69
2021/08/03 04:19:40;;;;;;;6.40;4.03;;;;;;;;;;5009093;28;20087;-69
2021/08/03 04:22:06;;;;;;;6.13;3.50;;;;;;;;;;5017812;28;20018;-69
2021/08/03 04:24:31;;;;;;;5.65;3.83;;;;;;;;;;5010480;28;20284;-70
2021/08/03 04:26:56;;;;;;;5.10;3.55;;;;;;;;;;5016374;28;20026;-70
2021/08/03 04:29:21;;;;;;;6.25;3.47;;;;;;;;;;5014613;28;20034;-69
2021/08/03 04:31:46;;;;;;;6.00;3.40;;;;;;;;;;5010941;28;20041;-69
2021/08/03 04:34:11;;;;;;;7.53;3.80;;;;;;;;;;5013573;28;20036;-68
2021/08/03 04:36:37;;;;;;;6.85;3.60;;;;;;;;;;5010151;28;20304;-68
2021/08/03 04:39:02;;;;;;;6.78;3.65;;;;;;;;;;5016791;28;20372;-69
2021/08/03 04:41:28;;;;;;;6.75;3.45;;;;;;;;;;5016447;28;20484;-69
2021/08/03 04:43:53;;;;;;;6.18;3.22;;;;;;;;;;5008162;28;20091;-69
2021/08/03 04:46:18;;;;;;;6.63;3.67;;;;;;;;;;5009219;28;20096;-68
2021/08/03 04:48:43;;;;;;;6.78;3.50;;;;;;;;;;5016645;28;20655;-69
2021/08/03 04:51:08;;;;;;;5.15;2.88;;;;;;;;;;5014162;28;20488;-68
2021/08/03 04:53:34;;;;;;;6.10;3.03;;;;;;;;;;5013583;28;20068;-69
2021/08/03 04:55:59;;;;;;;3.88;2.75;;;;;;;;;;5012689;28;20061;-68
2021/08/03 04:58:24;;;;;;;3.87;2.60;;;;;;;;;;5010499;28;20029;-68
2021/08/03 05:00:51;;;;;;;5.57;2.60;;;;;;;;;;5010068;28;20379;-69
2021/08/03 05:03:16;;;;;;;4.85;2.58;;;;;;;;;;5011623;28;20029;-68
2021/08/03 05:05:41;;;;;;;3.95;2.22;;;;;;;;;;5016296;28;20095;-68
2021/08/03 05:08:06;;;;;;;3.33;2.27;;;;;;;;;;5009651;28;20022;-69
2021/08/03 05:10:31;;;;;;;3.72;2.30;;;;;;;;;;5016341;28;20301;-68
2021/08/03 05:12:57;;;;;;;3.38;2.15;;;;;;;;;;5018377;28;20448;-69
2021/08/03 05:15:22;;;;;;;6.40;2.28;;;;;;;;;;5023369;28;20064;-69
2021/08/03 05:17:48;;;;;;;3.70;2.00;;;;;;;;;;5012567;28;20021;-69
2021/08/03 05:20:13;;;;;;;3.95;2.20;;;;;;;;;;5008187;28;20025;-68
2021/08/03 05:22:39;;;;;;;4.53;2.53;;;;;;;;;;5003709;28;20369;-68
2021/08/03 05:25:04;;;;;;;4.00;2.30;;;;;;;;;;5010141;28;20389;-69
2021/08/03 05:27:29;;;;;;;3.83;2.30;;;;;;;;;;4995854;28;20521;-70
2021/08/03 05:29:54;;;;;;;5.28;2.00;;;;;;;;;;5007779;28;20034;-69
2021/08/03 05:32:20;;;;;;;3.63;1.97;;;;;;;;;;5006145;28;20026;-69
2021/08/03 05:34:45;;;;;;;2.83;1.77;;;;;;;;;;5008655;28;20693;-68
2021/08/03 05:37:10;;;;;;;4.18;2.60;;;;;;;;;;5005092;28;20025;-68
2021/08/03 05:39:36;;;;;;;2.97;1.73;;;;;;;;;;4995931;28;20033;-69
2021/08/03 05:42:01;;;;;;;3.65;2.10;;;;;;;;;;5002863;28;20294;-68
2021/08/03 05:44:27;;;;;;;3.45;1.90;;;;;;;;;;5008111;28;20048;-68
2021/08/03 05:46:52;;;;;;;3.67;2.08;;;;;;;;;;5013307;28;20057;-68
2021/08/03 05:49:17;;;;;;;3.35;1.98;;;;;;;;;;5004664;28;20037;-69
2021/08/03 05:51:43;;;;;;;5.43;2.03;;;;;;;;;;5009954;28;20573;-69
2021/08/03 05:54:08;;;;;;;3.42;1.90;;;;;;;;;;4999410;28;20061;-69
2021/08/03 05:56:33;;;;;;;3.87;1.90;;;;;;;;;;5010496;28;20041;-69
2021/08/03 05:58:58;;;;;;;2.88;2.13;;;;;;;;;;5007432;28;20312;-69
2021/08/03 06:01:23;;;;;;;3.10;1.77;;;;;;;;;;5012271;28;20037;-68
2021/08/03 06:03:49;;;;;;;4.00;2.00;;;;;;;;;;5010815;28;20272;-68
2021/08/03 06:06:14;;;;;;;8.20;2.07;;;;;;;;;;5015294;28;20378;-69
2021/08/03 06:08:41;;;;;;;6.47;2.40;;;;;;;;;;5010777;28;20061;-69
2021/08/03 06:11:06;;;;;;;7.40;2.00;;;;;;;;;;5005022;28;20022;-69
2021/08/03 06:13:35;;;;;;;5.57;1.95;;;;;;;;;;5007181;28;20571;-68
2021/08/03 06:16:02;;;;;;;4.90;2.20;;;;;;;;;;5017948;28;20029;-69
2021/08/03 06:18:35;;;;;;;3.25;2.10;;;;;;;;;;5009317;28;20068;-68
2021/08/03 06:21:01;;;;;;;5.72;2.33;;;;;;;;;;5014867;28;20033;-68
2021/08/03 06:23:27;;;;;;;6.18;2.10;;;;;;;;;;5008764;28;20485;-69
2021/08/03 06:25:53;;;;;;;4.75;1.90;;;;;;;;;;5020184;28;20040;-69
2021/08/03 06:28:20;;;;;;;5.80;1.92;;;;;;;;;;5015742;28;20192;-68
2021/08/03 06:30:49;;;;;;;5.18;2.17;;;;;;;;;;5013760;28;20030;-69
2021/08/03 06:33:18;;;;;;;2.78;1.85;;;;;;;;;;5015776;28;20033;-68
2021/08/03 06:35:44;;;;;;;3.67;1.75;;;;;;;;;;5008798;28;20072;-68
2021/08/03 06:38:09;;;;;;;5.13;1.90;;;;;;;;;;5008895;28;20029;-70
2021/08/03 06:40:36;;;;;;;3.07;2.00;;;;;;;;;;5011510;28;20041;-69
2021/08/03 06:43:09;;;;;;;4.90;1.98;;;;;;;;;;5014666;28;20237;-69
2021/08/03 06:45:34;;;;;;;2.95;1.90;;;;;;;;;;5015231;28;20025;-69
2021/08/03 06:48:00;;;;;;;3.58;1.85;;;;;;;;;;5012197;28;20059;-69
2021/08/03 06:50:28;;;;;;;2.67;1.58;;;;;;;;;;5012490;28;20034;-69
2021/08/03 06:52:54;;;;;;;2.47;1.38;;;;;;;;;;5011562;28;20526;-69
2021/08/03 06:55:23;;;;;;;4.03;1.90;;;;;;;;;;5007690;28;20037;-68
2021/08/03 06:57:50;;;;;;;8.65;1.88;;;;;;;;;;5006723;28;20030;-68
2021/08/03 07:00:16;;;;;;;4.15;1.95;;;;;;;;;;5009489;28;20030;-69
2021/08/03 07:02:42;;;;;;;3.28;1.77;;;;;;;;;;5012871;28;20026;-68
2021/08/03 07:05:18;;;;;;;3.67;1.90;;;;;;;;;;5014456;28;20064;-67
2021/08/03 07:07:44;;;;;;;4.38;1.60;;;;;;;;;;5017555;28;20025;-68
2021/08/03 07:10:09;;;;;;;3.80;1.67;;;;;;;;;;5031325;28;20032;-68
2021/08/03 07:12:35;;;;;;;2.95;1.90;;;;;;;;;;5031171;28;20029;-68
2021/08/03 07:15:00;;;;;;;2.77;1.70;;;;;;;;;;5028025;28;20577;-68
2021/08/03 07:17:25;;;;;;;3.08;1.50;;;;;;;;;;5028421;28;20268;-67
2021/08/03 07:19:51;;;;;;;3.83;1.80;;;;;;;;;;5022159;28;20033;-67
2021/08/03 07:22:17;;;;;;;4.30;1.80;;;;;;;;;;5011696;28;20128;-67
2021/08/03 07:24:43;;;;;;;3.25;1.58;;;;;;;;;;5024964;28;20037;-68
2021/08/03 07:27:08;;;;;;;2.38;1.60;;;;;;;;;;5013377;28;20393;-68
2021/08/03 07:29:33;;;;;;;4.68;1.80;;;;;;;;;;5022008;28;20021;-68
2021/08/03 07:31:58;;;;;;;2.20;1.37;;;;;;;;;;5012487;28;20017;-71
2021/08/03 07:34:24;;;;;;;1.77;1.20;;;;;;;;;;5024200;28;20291;-72
2021/08/03 07:36:49;;;;;;;3.65;1.70;;;;;;;;;;5019611;28;20026;-71
2021/08/03 07:39:14;;;;;;;3.70;1.33;;;;;;;;;;5033317;28;20428;-71
2021/08/03 07:41:39;;;;;;;3.27;1.70;;;;;;;;;;5010841;28;20033;-65
2021/08/03 07:44:05;;;;;;;2.33;1.50;;;;;;;;;;5011076;28;20875;-65
2021/08/03 07:46:32;;;;;;;2.13;1.35;;;;;;;;;;5017950;28;20360;-65
2021/08/03 07:48:57;;;;;;;3.28;1.73;;;;;;;;;;5011319;28;20034;-65
2021/08/03 07:51:22;;;;;;;2.53;1.63;;;;;;;;;;5026611;28;20013;-65
2021/08/03 07:53:48;;;;;;;2.70;1.30;;;;;;;;;;5013312;28;20022;-65
2021/08/03 07:56:14;;;;;;;2.20;1.30;;;;;;;;;;5017594;28;20213;-64
2021/08/03 07:58:39;;;;;;;2.85;1.50;;;;;;;;;;5018193;28;20022;-64
2021/08/03 08:01:04;;;;;;;3.03;1.50;;;;;;;;;;5011330;28;20405;-65
2021/08/03 08:03:33;;;;;;;2.95;1.60;;;;;;;;;;5017999;28;20288;-65
2021/08/03 08:05:59;;;;;;;2.53;1.50;;;;;;;;;;5011396;28;20698;-65
2021/08/03 08:08:24;;;;;;;3.15;1.35;;;;;;;;;;5018711;28;20022;-65
2021/08/03 08:10:49;;;;;;;2.28;1.50;;;;;;;;;;5021328;28;20029;-65
2021/08/03 08:13:14;;;;;;;3.17;1.50;;;;;;;;;;5019347;28;20029;-64
2021/08/03 08:15:40;;;;;;;3.78;1.30;;;;;;;;;;5020994;28;20040;-64
2021/08/03 08:18:08;;;;;;;2.40;1.10;;;;;;;;;;5016526;28;20017;-64
2021/08/03 08:20:33;;;;;;;3.35;1.23;;;;;;;;;;5019767;28;20056;-65
2021/08/03 08:22:59;;;;;;;2.60;1.40;;;;;;;;;;5013757;28;20049;-65
2021/08/03 08:25:24;;;;;;;3.03;1.30;;;;;;;;;;5033239;28;20032;-65
2021/08/03 08:27:49;;;;;;;2.47;1.20;;;;;;;;;;5016851;28;20291;-65
2021/08/03 08:30:14;;;;;;;5.50;1.38;;;;;;;;;;5015211;28;20293;-64
2021/08/03 08:32:42;;;;;;;2.30;1.40;;;;;;;;;;5019077;28;20831;-66
2021/08/03 08:35:07;;;;;;;2.35;1.35;;;;;;;;;;5023427;28;20044;-68
2021/08/03 08:37:32;;;;;;;2.60;1.05;;;;;;;;;;5021452;28;20634;-64
2021/08/03 08:39:58;;;;;;;2.77;1.10;;;;;;;;;;5019599;28;20072;-65
2021/08/03 08:42:24;;;;;;;2.65;1.30;;;;;;;;;;5017810;28;20302;-64
2021/08/03 08:44:49;;;;;;;3.40;1.40;;;;;;;;;;5021287;28;20040;-64
2021/08/03 08:47:16;;;;;;;3.67;1.27;;;;;;;;;;5011926;28;20014;-65
2021/08/03 08:49:41;;;;;;;2.97;1.25;;;;;;;;;;5008913;28;20059;-66
2021/08/03 08:52:06;;;;;;;1.77;1.10;;;;;;;;;;5021531;28;20018;-65
2021/08/03 08:54:32;;;;;;;1.08;0.80;;;;;;;;;;5016151;28;20077;-65
2021/08/03 08:56:59;;;;;;;1.23;1.00;;;;;;;;;;5013769;28;20060;-66
2021/08/03 08:59:24;;;;;;;2.17;1.30;;;;;;;;;;5019510;28;20021;-65
2021/08/03 09:01:49;;;;;;;3.63;1.63;;;;;;;;;;5016367;28;20415;-65
2021/08/03 09:04:14;;;;;;;2.37;1.20;;;;;;;;;;5019222;28;20256;-66
2021/08/03 09:06:40;;;;;;;2.15;1.20;;;;;;;;;;5018453;28;20363;-66
2021/08/03 09:09:12;;;;;;;2.42;1.17;;;;;;;;;;5015058;28;20069;-66
2021/08/03 09:11:43;;;;;;;1.67;0.98;;;;;;;;;;5010404;28;20025;-66
2021/08/03 09:14:08;;;;;;;1.40;1.05;;;;;;;;;;5015361;28;20033;-66
2021/08/03 09:16:47;;;;;;;2.58;1.20;;;;;;;;;;5012942;28;20102;-66
2021/08/03 09:19:31;;;;;;;2.00;1.30;;;;;;;;;;5017114;28;20021;-67
2021/08/03 09:22:14;;;;;;;3.03;1.08;;;;;;;;;;5010922;28;20021;-65
2021/08/03 09:24:40;;;;;;;1.98;1.33;;;;;;;;;;5013269;28;20068;-65
2021/08/03 09:27:05;;;;;;;2.45;1.20;;;;;;;;;;5015725;28;20025;-66
2021/08/03 09:29:43;;;;;;;3.25;1.42;;;;;;;;;;5010515;28;20024;-65
2021/08/03 09:32:09;;;;;;;1.77;1.48;;;;;;;;;;5013378;28;20048;-65
2021/08/03 09:34:34;;;;;;;2.75;1.23;;;;;;;;;;5027687;28;20092;-66
2021/08/03 09:36:59;;;;;;;5.53;1.30;;;;;;;;;;5009664;28;20477;-66
2021/08/03 09:39:37;;;;;;;1.00;0.90;;;;;;;;;;5010088;28;20026;-66
2021/08/03 09:42:09;;;;;;;2.35;1.23;;;;;;;;;;5011383;28;20113;-65
2021/08/03 09:44:35;;;;;;;2.33;1.25;;;;;;;;;;5013597;28;20053;-66
2021/08/03 09:47:01;;;;;;;2.35;1.40;;;;;;;;;;5009846;28;20026;-67
2021/08/03 09:49:33;;;;;;;2.78;1.40;;;;;;;;;;5010938;28;20014;-66
2021/08/03 09:52:08;;;;;;;2.28;1.25;;;;;;;;;;5024843;28;20032;-66
2021/08/03 09:54:34;;;;;;;3.25;1.45;;;;;;;;;;5028497;28;20523;-66
2021/08/03 09:56:59;;;;;;;3.05;1.58;;;;;;;;;;5012906;28;20037;-66
2021/08/03 09:59:37;;;;;;;2.58;1.38;;;;;;;;;;5011733;28;20018;-65
2021/08/03 10:02:03;;;;;;;2.92;1.20;;;;;;;;;;5024195;28;20109;-66
2021/08/03 10:04:29;;;;;;;2.67;1.10;;;;;;;;;;5012619;28;20042;-66
2021/08/03 10:06:54;;;;;;;2.92;1.30;;;;;;;;;;5018724;28;20033;-66
2021/08/03 10:09:21;;;;;;;3.47;1.45;;;;;;;;;;5008195;28;20046;-66
2021/08/03 10:11:47;;;;;;;1.65;1.20;;;;;;;;;;5009629;28;20112;-66
2021/08/03 10:14:12;;;;;;;3.13;1.10;;;;;;;;;;5009325;28;20030;-65
2021/08/03 10:16:37;;;;;;;1.88;1.23;;;;;;;;;;5017418;28;20040;-65
2021/08/03 10:19:04;;;;;;;2.95;1.38;;;;;;;;;;5027261;28;20037;-65
2021/08/03 10:21:32;;;;;;;2.38;1.20;;;;;;;;;;5022716;28;20047;-65
2021/08/03 10:24:00;;;;;;;2.13;1.27;;;;;;;;;;5022377;28;20030;-66
2021/08/03 10:26:25;;;;;;;3.22;1.40;;;;;;;;;;5022533;28;20026;-65
2021/08/03 10:29:10;;;;;;;3.58;1.40;;;;;;;;;;5008053;28;20041;-65
2021/08/03 10:31:35;;;;;;;4.07;1.20;;;;;;;;;;5007448;28;20446;-64
2021/08/03 10:34:01;;;;;;;2.78;1.30;;;;;;;;;;5009327;28;20121;-64
2021/08/03 10:36:41;;;;;;;2.50;1.30;;;;;;;;;;5013291;28;20029;-64
2021/08/03 10:39:10;;;;;;;1.48;1.10;;;;;;;;;;5017820;28;20755;-66
2021/08/03 10:41:54;;;;;;;1.63;1.17;;;;;;;;;;5022545;28;20133;-66
2021/08/03 10:44:38;;;;;;;2.42;1.25;;;;;;;;;;5018836;28;20045;-66
2021/08/03 10:47:03;;;;;;;3.92;1.40;;;;;;;;;;5007908;28;20022;-65
2021/08/03 10:49:47;;;;;;;1.37;1.03;;;;;;;;;;5011672;28;20048;-65
2021/08/03 10:52:32;;;;;;;2.13;1.40;;;;;;;;;;5024604;28;20268;-65
2021/08/03 10:54:58;;;;;;;3.65;1.40;;;;;;;;;;5015495;28;20036;-66
2021/08/03 10:57:23;;;;;;;3.20;1.50;;;;;;;;;;5022535;28;20029;-63
2021/08/03 10:59:58;;;;;;;2.72;1.58;;;;;;;;;;5026832;28;20746;-65
2021/08/03 11:02:23;;;;;;;2.58;1.45;;;;;;;;;;5013779;28;20416;-64
2021/08/03 11:04:51;;;;;;;4.87;2.03;;;;;;;;;;5012808;28;20030;-65
2021/08/03 11:07:36;;;;;;;3.25;1.63;;;;;;;;;;5031249;28;20267;-64
2021/08/03 11:10:13;;;;;;;3.20;1.88;;;;;;;;;;5007675;28;20052;-64
2021/08/03 11:12:46;;;;;;;2.85;1.10;;;;;;;;;;5012177;28;20049;-64
2021/08/03 11:17:53;;;;;;;2.50;1.60;;;;;;;;;;5012718;28;20026;-64
2021/08/03 11:20:34;;;;;;;3.25;1.60;;;;;;;;;;5009899;28;20053;-64
2021/08/03 11:22:59;;;;;;;5.28;1.40;;;;;;;;;;5017068;28;20029;-64
2021/08/03 11:25:25;;;;;;;1.80;1.23;;;;;;;;;;5014416;28;20080;-64
2021/08/03 11:27:50;;;;;;;3.15;1.80;;;;;;;;;;5011871;28;20060;-64
2021/08/03 11:30:15;;;;;;;3.13;1.40;;;;;;;;;;4977678;28;20025;-64
2021/08/03 11:32:41;;;;;;;3.28;1.40;;;;;;;;;;4980870;28;20034;-64
2021/08/03 11:35:06;;;;;;;3.57;1.50;;;;;;;;;;4981232;28;20372;-64
2021/08/03 11:37:38;;;;;;;3.35;1.52;;;;;;;;;;4980360;28;20277;-65
2021/08/03 11:40:03;;;;;;;2.92;1.25;;;;;;;;;;4981478;28;20033;-64
2021/08/03 11:42:36;;;;;;;2.88;1.50;;;;;;;;;;4982521;28;20015;-64
2021/08/03 11:45:06;;;;;;;3.65;1.83;;;;;;;;;;4978891;28;20030;-63
2021/08/03 11:47:39;;;;;;;2.95;1.52;;;;;;;;;;4979669;28;20058;-64
2021/08/03 11:50:06;;;;;;;3.00;1.50;;;;;;;;;;4974816;28;20027;-65
2021/08/03 11:52:31;;;;;;;2.40;1.40;;;;;;;;;;4975193;28;20054;-64
2021/08/03 11:54:56;;;;;;;2.63;1.50;;;;;;;;;;4972468;28;20109;-64
2021/08/03 11:57:26;;;;;;;1.90;1.40;;;;;;;;;;4971551;28;20250;-64
2021/08/03 11:59:59;;;;;;;2.75;1.40;;;;;;;;;;4971720;28;20032;-64
2021/08/03 12:02:24;;;;;;;1.83;1.35;;;;;;;;;;4972015;28;20378;-64
2021/08/03 12:05:06;;;;;;;2.80;1.52;;;;;;;;;;4972173;28;20019;-64
2021/08/03 12:07:31;;;;;;;2.83;1.77;;;;;;;;;;4971754;28;20161;-66
2021/08/03 12:09:56;;;;;;;3.10;1.38;;;;;;;;;;4971148;28;20118;-65
2021/08/03 12:12:21;;;;;;;2.77;1.30;;;;;;;;;;4972631;28;20023;-64
2021/08/03 12:14:47;;;;;;;2.72;1.58;;;;;;;;;;4965707;28;20781;-66
2021/08/03 12:17:25;;;;;;;3.53;1.80;;;;;;;;;;4970667;28;20494;-65
2021/08/03 12:19:50;;;;;;;2.63;1.50;;;;;;;;;;4965608;28;20505;-64
2021/08/03 12:22:25;;;;;;;3.17;1.63;;;;;;;;;;4965668;28;20114;-66
2021/08/03 12:24:57;;;;;;;3.67;1.40;;;;;;;;;;4980892;28;20262;-66
2021/08/03 12:27:23;;;;;;;4.43;1.60;;;;;;;;;;4969735;28;20029;-65
2021/08/03 12:29:48;;;;;;;2.65;1.50;;;;;;;;;;4969981;28;20348;-68
2021/08/03 12:32:33;;;;;;;1.70;1.20;;;;;;;;;;4967804;28;20022;-65
2021/08/03 12:35:07;;;;;;;3.88;1.50;;;;;;;;;;4974477;28;20302;-65
2021/08/03 12:37:33;;;;;;;1.50;1.20;;;;;;;;;;4971083;28;20382;-68
2021/08/03 12:39:58;;;;;;;2.15;1.27;;;;;;;;;;4971383;28;20030;-65
2021/08/03 12:42:31;;;;;;;2.17;1.30;;;;;;;;;;4971316;28;20035;-66
2021/08/03 12:45:11;;;;;;;2.40;1.40;;;;;;;;;;4971269;28;20421;-66
2021/08/03 12:47:36;;;;;;;;;;;;;;;;;;4971985;28;20019;-66
2021/08/03 12:50:08;;;;;;;2.78;1.38;;;;;;;;;;4974451;28;19910;-66
2021/08/03 12:52:34;;;;;;;1.67;1.23;;;;;;;;;;4971890;28;20222;-66
2021/08/03 12:55:10;;;;;;;2.20;1.27;;;;;;;;;;4971994;28;20110;-67
2021/08/03 12:57:42;;;;;;;2.83;1.50;;;;;;;;;;4971495;28;20478;-66
2021/08/03 13:00:25;;;;;;;3.53;1.40;;;;;;;;;;4970974;28;20076;-66
2021/08/03 13:02:50;;;;;;;3.65;1.40;;;;;;;;;;4966886;28;20486;-66
2021/08/03 13:05:15;;;;;;;2.37;1.40;;;;;;;;;;4971147;28;20038;-66
2021/08/03 13:07:40;;;;;;;3.07;1.60;;;;;;;;;;4971041;28;20582;-66
2021/08/03 13:10:06;;;;;;;1.80;1.40;;;;;;;;;;4971177;28;20031;-66
2021/08/03 13:12:31;;;;;;;1.55;1.20;;;;;;;;;;4970555;28;20035;-66
2021/08/03 13:14:56;;;;;;;3.67;1.40;;;;;;;;;;4969914;28;20022;-66
2021/08/03 13:17:22;;;;;;;1.63;1.25;;;;;;;;;;4970887;28;20490;-65
2021/08/03 13:19:47;;;;;;;2.35;1.48;;;;;;;;;;4970585;28;20026;-65
2021/08/03 13:22:12;;;;;;;3.93;1.40;;;;;;;;;;4969873;28;20038;-66
2021/08/03 13:24:37;;;;;;;2.10;1.20;;;;;;;;;;4970035;28;20642;-62
2021/08/03 13:27:02;;;;;;;1.70;1.30;;;;;;;;;;4976212;28;20026;-61
2021/08/03 13:29:28;;;;;;;1.77;1.20;;;;;;;;;;4970671;28;20247;-62
2021/08/03 13:31:53;;;;;;;2.97;1.20;;;;;;;;;;4970405;28;20061;-62
2021/08/03 13:34:18;;;;;;;1.80;1.27;;;;;;;;;;4970634;28;20258;-62
2021/08/03 13:36:43;;;;;;;2.00;1.25;;;;;;;;;;4970653;28;20286;-64
2021/08/03 13:39:09;;;;;;;2.03;1.20;;;;;;;;;;4970502;28;20011;-63
2021/08/03 13:41:34;;;;;;;6.23;1.40;;;;;;;;;;4970253;28;20267;-65
2021/08/03 13:43:59;;;;;;;1.83;1.30;;;;;;;;;;4966700;28;21010;-63
2021/08/03 13:46:24;;;;;;;2.40;1.10;;;;;;;;;;4964075;28;20486;-65
2021/08/03 13:48:50;;;;;;;1.60;1.20;;;;;;;;;;4971479;28;20022;-63
2021/08/03 13:51:15;;;;;;;1.87;1.30;;;;;;;;;;4962529;28;20762;-62
2021/08/03 13:53:40;;;;;;;1.97;1.37;;;;;;;;;;4976261;28;20273;-62
2021/08/03 13:56:07;;;;;;;1.20;0.93;;;;;;;;;;4973070;28;20803;-65
2021/08/03 13:58:33;;;;;;;2.85;1.70;;;;;;;;;;4963865;28;20266;-64
2021/08/03 14:00:58;;;;;;;3.28;1.20;;;;;;;;;;4967009;28;20034;-63
2021/08/03 14:03:23;;;;;;;2.60;1.45;;;;;;;;;;4968198;28;20367;-62
2021/08/03 14:05:48;;;;;;;2.80;1.30;;;;;;;;;;4963619;28;20522;-63
2021/08/03 14:08:14;;;;;;;2.93;1.20;;;;;;;;;;4970259;28;20334;-66
2021/08/03 14:10:39;;;;;;;2.72;1.60;;;;;;;;;;4969223;28;20281;-67
2021/08/03 14:13:04;;;;;;;3.47;1.30;;;;;;;;;;4963509;28;20023;-66
2021/08/03 14:15:29;;;;;;;1.93;1.27;;;;;;;;;;4972369;28;20047;-64
2021/08/03 14:17:54;;;;;;;1.92;1.40;;;;;;;;;;4969581;28;20553;-66
2021/08/03 14:20:19;;;;;;;2.17;1.30;;;;;;;;;;4969904;28;20050;-64
2021/08/03 14:22:45;;;;;;;3.72;1.50;;;;;;;;;;4969901;28;20027;-65
2021/08/03 14:25:10;;;;;;;5.38;1.60;;;;;;;;;;4969451;28;20379;-64
2021/08/03 14:27:36;;;;;;;2.20;1.20;;;;;;;;;;4969558;28;20684;-64
2021/08/03 14:30:02;;;;;;;2.08;1.30;;;;;;;;;;4969309;28;20356;-63
2021/08/03 14:32:27;;;;;;;1.75;1.13;;;;;;;;;;4964881;28;20027;-67
2021/08/03 14:34:52;;;;;;;3.25;1.35;;;;;;;;;;4969707;28;20037;-66
2021/08/03 14:37:17;;;;;;;1.60;1.30;;;;;;;;;;4964273;28;20142;-65
2021/08/03 14:39:43;;;;;;;1.80;1.30;;;;;;;;;;4963004;28;20038;-66
2021/08/03 14:42:08;;;;;;;2.92;1.38;;;;;;;;;;4969743;28;20073;-65
2021/08/03 14:44:33;;;;;;;3.33;1.42;;;;;;;;;;4975939;28;20055;-65
2021/08/03 14:46:58;;;;;;;3.58;1.40;;;;;;;;;;4976773;28;20026;-66